createdAt,value
2022-08-26T00:00:58.032Z,74.54
2022-08-26T00:03:27.780Z,74.82
2022-08-26T00:05:57.543Z,74.88
2022-08-26T00:08:27.405Z,74.81
2022-08-26T00:10:56.742Z,74.74
2022-08-26T00:13:29.317Z,74.61
2022-08-26T00:15:59.384Z,74.84
2022-08-26T00:18:29.280Z,75.03
2022-08-26T00:21:06.193Z,75.16
2022-08-26T00:23:36.917Z,75.22
2022-08-26T00:26:08.354Z,75.33
2022-08-26T00:28:40.413Z,75.58
2022-08-26T00:31:11.053Z,75.66
2022-08-26T00:33:41.959Z,75.82
2022-08-26T00:36:19.926Z,75.82
2022-08-26T00:38:49.937Z,76.09
2022-08-26T00:41:22.148Z,75.84
2022-08-26T00:43:51.525Z,76.15
2022-08-26T00:46:31.597Z,76.37
2022-08-26T00:49:15.999Z,76.77
2022-08-26T00:51:54.338Z,76.64
2022-08-26T00:54:27.321Z,76.50
2022-08-26T00:57:08.736Z,76.58
2022-08-26T00:59:48.726Z,77.03
2022-08-26T01:02:20.775Z,76.80
2022-08-26T01:04:56.186Z,76.54
2022-08-26T01:07:30.255Z,76.45
2022-08-26T01:10:02.923Z,76.88
2022-08-26T01:12:36.624Z,76.59
2022-08-26T01:15:10.437Z,76.89
2022-08-26T01:17:41.303Z,77.28
2022-08-26T01:20:21.776Z,76.67
2022-08-26T01:22:58.660Z,76.53
2022-08-26T01:25:34.090Z,76.67
2022-08-26T01:28:09.108Z,76.68
2022-08-26T01:30:41.302Z,76.61
2022-08-26T01:33:16.032Z,76.96
2022-08-26T01:35:46.334Z,77.37
2022-08-26T01:38:15.977Z,76.86
2022-08-26T01:40:46.092Z,77.00
2022-08-26T01:43:21.585Z,76.94
2022-08-26T01:45:54.699Z,76.95
2022-08-26T01:48:27.644Z,77.64
2022-08-26T01:50:57.579Z,77.13
2022-08-26T01:53:27.872Z,77.06
2022-08-26T01:56:01.146Z,77.42
2022-08-26T01:58:39.898Z,77.21
2022-08-26T02:01:09.816Z,77.83
2022-08-26T02:03:54.593Z,77.65
2022-08-26T02:06:23.947Z,77.73
2022-08-26T02:08:57.499Z,77.52
2022-08-26T02:11:26.940Z,77.49
2022-08-26T02:14:08.954Z,77.84
2022-08-26T02:16:42.312Z,77.77
2022-08-26T02:19:17.265Z,78.12
2022-08-26T02:21:51.186Z,77.78
2022-08-26T02:24:27.882Z,77.68
2022-08-26T02:26:58.225Z,77.75
2022-08-26T02:29:30.258Z,77.94
2022-08-26T02:32:00.718Z,77.77
2022-08-26T02:34:32.848Z,78.20
2022-08-26T02:37:04.230Z,78.01
2022-08-26T02:39:35.514Z,78.09
2022-08-26T02:42:05.367Z,77.69
2022-08-26T02:44:35.193Z,78.06
2022-08-26T02:47:05.290Z,78.35
2022-08-26T02:49:34.932Z,78.61
2022-08-26T02:52:04.574Z,78.89
2022-08-26T02:54:34.125Z,78.41
2022-08-26T02:57:03.719Z,78.41
2022-08-26T02:59:36.330Z,78.36
2022-08-26T03:02:05.771Z,78.10
2022-08-26T03:04:35.311Z,78.48
2022-08-26T03:07:04.602Z,78.93
2022-08-26T03:09:34.056Z,78.51
2022-08-26T03:12:04.383Z,78.44
2022-08-26T03:14:33.689Z,78.93
2022-08-26T03:17:03.023Z,79.01
2022-08-26T03:19:33.786Z,78.74
2022-08-26T03:22:05.017Z,79.06
2022-08-26T03:24:34.551Z,78.47
2022-08-26T03:27:06.001Z,78.82
2022-08-26T03:29:49.612Z,78.89
2022-08-26T03:32:20.854Z,78.74
2022-08-26T03:34:50.551Z,78.91
2022-08-26T03:37:20.967Z,78.71
2022-08-26T03:39:51.334Z,78.52
2022-08-26T03:42:22.182Z,77.98
2022-08-26T03:44:51.684Z,78.41
2022-08-26T03:47:21.309Z,78.48
2022-08-26T03:49:50.744Z,78.62
2022-08-26T03:52:21.430Z,78.34
2022-08-26T03:54:50.741Z,78.30
2022-08-26T03:57:20.583Z,78.48
2022-08-26T03:59:51.468Z,78.43
2022-08-26T04:02:21.746Z,78.80
2022-08-26T04:04:51.051Z,78.38
2022-08-26T04:07:20.929Z,78.51
2022-08-26T04:09:50.237Z,78.67
2022-08-26T04:12:19.992Z,78.89
2022-08-26T04:14:49.565Z,78.89
2022-08-26T04:17:19.347Z,79.78
2022-08-26T04:19:56.383Z,79.30
2022-08-26T04:22:26.449Z,79.26
2022-08-26T04:25:01.044Z,78.87
2022-08-26T04:27:30.432Z,78.81
2022-08-26T04:30:00.181Z,78.81
2022-08-26T04:32:29.533Z,79.02
2022-08-26T04:34:58.830Z,79.59
2022-08-26T04:37:30.526Z,79.62
2022-08-26T04:40:02.027Z,79.74
2022-08-26T04:42:32.221Z,79.44
2022-08-26T04:45:05.934Z,79.10
2022-08-26T04:47:40.012Z,79.43
2022-08-26T04:50:11.051Z,79.47
2022-08-26T04:52:40.444Z,79.47
2022-08-26T04:55:10.634Z,79.34
2022-08-26T04:57:40.120Z,79.33
2022-08-26T05:00:11.982Z,79.44
2022-08-26T05:02:41.511Z,79.62
2022-08-26T05:05:13.818Z,79.52
2022-08-26T05:07:43.476Z,79.33
2022-08-26T05:10:12.898Z,79.17
2022-08-26T05:12:44.358Z,79.04
2022-08-26T05:15:14.127Z,79.21
2022-08-26T05:17:43.432Z,79.27
2022-08-26T05:20:14.422Z,79.09
2022-08-26T05:22:44.327Z,78.90
2022-08-26T05:25:13.661Z,79.05
2022-08-26T05:27:42.918Z,79.22
2022-08-26T05:30:12.674Z,79.40
2022-08-26T05:32:42.211Z,78.98
2022-08-26T05:35:11.705Z,79.09
2022-08-26T05:37:41.148Z,79.25
2022-08-26T05:40:11.113Z,79.52
2022-08-26T05:42:40.479Z,79.55
2022-08-26T05:45:10.305Z,79.36
2022-08-26T05:47:39.578Z,79.25
2022-08-26T05:50:09.362Z,79.25
2022-08-26T05:52:39.921Z,79.40
2022-08-26T05:55:09.625Z,78.83
2022-08-26T05:57:42.153Z,78.68
2022-08-26T06:00:12.999Z,78.83
2022-08-26T06:02:42.494Z,78.84
2022-08-26T06:05:11.836Z,78.38
2022-08-26T06:07:53.737Z,77.82
2022-08-26T06:10:31.960Z,77.71
2022-08-26T06:13:09.238Z,77.31
2022-08-26T06:15:46.041Z,77.33
2022-08-26T06:18:16.901Z,76.78
2022-08-26T06:20:56.824Z,76.78
2022-08-26T06:23:40.485Z,76.77
2022-08-26T06:26:10.991Z,76.24
2022-08-26T06:28:40.711Z,76.15
2022-08-26T06:31:15.502Z,75.79
2022-08-26T06:33:46.593Z,75.22
2022-08-26T06:36:24.342Z,74.92
2022-08-26T06:38:55.266Z,74.68
2022-08-26T06:41:25.920Z,74.40
2022-08-26T06:44:00.504Z,74.09
2022-08-26T06:46:30.260Z,73.60
2022-08-26T06:49:00.945Z,73.31
2022-08-26T06:51:32.718Z,73.56
2022-08-26T06:54:05.220Z,71.48
2022-08-26T06:56:40.555Z,71.76
2022-08-26T06:59:10.672Z,70.51
2022-08-26T07:01:44.491Z,70.71
2022-08-26T07:04:15.556Z,69.93
2022-08-26T07:06:48.974Z,69.08
2022-08-26T07:09:19.873Z,69.10
2022-08-26T07:11:51.416Z,68.37
2022-08-26T07:14:21.897Z,67.35
2022-08-26T07:16:52.384Z,66.61
2022-08-26T07:19:30.418Z,66.36
2022-08-26T07:22:02.292Z,66.38
2022-08-26T07:24:36.578Z,65.30
2022-08-26T07:27:08.721Z,64.80
2022-08-26T07:29:42.456Z,64.91
2022-08-26T07:32:13.554Z,64.80
2022-08-26T07:34:43.473Z,64.09
2022-08-26T07:37:13.340Z,63.47
2022-08-26T07:39:43.540Z,62.68
2022-08-26T07:42:14.017Z,60.72
2022-08-26T07:44:43.869Z,60.03
2022-08-26T07:47:25.522Z,60.62
2022-08-26T07:49:59.904Z,60.37
2022-08-26T07:52:33.709Z,60.60
2022-08-26T07:55:05.260Z,60.16
2022-08-26T07:57:34.725Z,59.44
2022-08-26T08:00:04.636Z,58.81
2022-08-26T08:02:34.654Z,58.00
2022-08-26T08:05:04.141Z,56.42
2022-08-26T08:07:44.222Z,54.75
2022-08-26T08:10:17.941Z,55.58
2022-08-26T08:12:48.059Z,55.06
2022-08-26T08:15:20.306Z,55.89
2022-08-26T08:17:51.555Z,53.98
2022-08-26T08:20:22.181Z,54.45
2022-08-26T08:22:55.079Z,54.02
2022-08-26T08:25:25.207Z,53.70
2022-08-26T08:27:54.514Z,52.52
2022-08-26T08:30:25.032Z,52.76
2022-08-26T08:32:55.031Z,52.64
2022-08-26T08:35:26.558Z,51.94
2022-08-26T08:37:57.263Z,51.96
2022-08-26T08:40:29.284Z,52.83
2022-08-26T08:43:06.492Z,52.18
2022-08-26T08:45:40.092Z,52.37
2022-08-26T08:48:29.569Z,52.74
2022-08-26T08:51:07.235Z,53.59
2022-08-26T08:53:43.277Z,54.07
2022-08-26T08:56:21.301Z,54.78
2022-08-26T08:59:25.142Z,54.20
2022-08-26T09:01:54.315Z,54.84
2022-08-26T09:04:46.839Z,54.98
2022-08-26T09:07:25.500Z,54.03
2022-08-26T09:10:05.008Z,51.97
2022-08-26T09:12:36.601Z,52.58
2022-08-26T09:15:33.778Z,51.69
2022-08-26T09:18:08.570Z,52.61
2022-08-26T09:20:49.741Z,52.13
2022-08-26T09:23:19.835Z,53.27
2022-08-26T09:25:58.413Z,51.60
2022-08-26T09:28:29.879Z,50.64
2022-08-26T09:31:25.153Z,50.84
2022-08-26T09:34:30.674Z,51.14
2022-08-26T09:37:04.569Z,51.19
2022-08-26T09:39:39.760Z,51.78
2022-08-26T09:42:25.522Z,49.97
2022-08-26T09:44:56.616Z,50.87
2022-08-26T09:47:31.557Z,49.62
2022-08-26T09:50:22.038Z,48.95
2022-08-26T09:53:13.121Z,47.97
2022-08-26T09:55:45.366Z,49.57
2022-08-26T09:58:39.051Z,47.75
2022-08-26T10:01:29.996Z,48.10
2022-08-26T10:04:14.750Z,48.88
2022-08-26T10:06:46.941Z,49.46
2022-08-26T10:09:20.576Z,48.65
2022-08-26T10:11:53.600Z,49.60
2022-08-26T10:14:27.508Z,49.67
2022-08-26T10:17:07.145Z,49.91
2022-08-26T10:19:57.837Z,49.79
2022-08-26T10:22:34.215Z,50.34
2022-08-26T10:25:06.601Z,50.59
2022-08-26T10:28:03.640Z,51.54
2022-08-26T10:30:54.951Z,52.47
2022-08-26T10:33:26.179Z,53.74
2022-08-26T10:36:01.211Z,55.50
2022-08-26T10:38:35.725Z,56.83
2022-08-26T10:41:20.152Z,57.14
2022-08-26T10:44:03.492Z,55.23
2022-08-26T10:46:42.419Z,54.65
2022-08-26T10:49:15.971Z,56.79
2022-08-26T10:52:15.178Z,59.42
2022-08-26T10:54:55.214Z,64.98
2022-08-26T10:57:45.174Z,67.75
2022-08-26T11:00:46.250Z,71.82
2022-08-26T11:03:34.772Z,75.82
2022-08-26T11:06:21.987Z,75.91
2022-08-26T11:08:53.413Z,75.18
2022-08-26T11:11:46.937Z,74.63
2022-08-26T11:14:29.212Z,76.01
2022-08-26T11:17:00.192Z,76.13
2022-08-26T11:19:59.614Z,77.48
2022-08-26T11:22:34.908Z,76.70
2022-08-26T11:25:13.618Z,78.60
2022-08-26T11:27:42.847Z,78.49
2022-08-26T11:30:19.532Z,79.63
2022-08-26T11:32:55.373Z,80.49
2022-08-26T11:35:24.805Z,79.99
2022-08-26T11:37:58.033Z,79.18
2022-08-26T11:40:34.602Z,80.47
2022-08-26T11:43:08.365Z,80.29
2022-08-26T11:45:42.278Z,81.00
2022-08-26T11:48:33.538Z,82.54
2022-08-26T11:51:13.538Z,82.74
2022-08-26T11:53:47.145Z,82.89
2022-08-26T11:56:34.416Z,83.84
2022-08-26T11:59:16.349Z,83.68
2022-08-26T12:01:48.761Z,83.02
2022-08-26T12:04:36.010Z,84.76
2022-08-26T12:07:08.626Z,83.71
2022-08-26T12:09:39.757Z,83.31
2022-08-26T12:12:24.242Z,83.05
2022-08-26T12:15:18.616Z,82.54
2022-08-26T12:17:54.303Z,81.70
2022-08-26T12:20:48.673Z,82.05
2022-08-26T12:23:37.688Z,81.54
2022-08-26T12:26:35.308Z,81.51
2022-08-26T12:29:18.096Z,82.07
2022-08-26T12:31:49.932Z,82.54
2022-08-26T12:34:20.069Z,81.70
2022-08-26T12:36:55.742Z,82.13
2022-08-26T12:39:34.062Z,81.31
2022-08-26T12:42:05.264Z,81.73
2022-08-26T12:44:54.290Z,80.83
2022-08-26T12:47:44.501Z,81.51
2022-08-26T12:50:30.142Z,83.88
2022-08-26T12:53:08.536Z,83.06
2022-08-26T12:55:52.915Z,83.87
2022-08-26T12:58:31.855Z,83.27
2022-08-26T13:01:24.917Z,83.11
2022-08-26T13:03:54.306Z,82.01
2022-08-26T13:06:23.567Z,82.53
2022-08-26T13:08:57.025Z,83.15
2022-08-26T13:11:38.005Z,82.68
2022-08-26T13:14:24.326Z,83.27
2022-08-26T13:16:55.262Z,83.02
2022-08-26T13:19:26.956Z,83.32
2022-08-26T13:21:58.547Z,83.71
2022-08-26T13:24:41.230Z,82.52
2022-08-26T13:27:12.519Z,83.30
2022-08-26T13:29:42.243Z,82.93
2022-08-26T13:32:12.033Z,83.14
2022-08-26T13:34:42.290Z,84.01
2022-08-26T13:37:11.698Z,83.34
2022-08-26T13:39:42.112Z,83.25
2022-08-26T13:42:11.803Z,83.11
2022-08-26T13:44:43.768Z,82.99
2022-08-26T13:47:13.233Z,82.43
2022-08-26T13:49:42.617Z,81.74
2022-08-26T13:52:12.657Z,81.46
2022-08-26T13:54:43.199Z,80.51
2022-08-26T13:57:12.647Z,80.81
2022-08-26T13:59:41.950Z,79.79
2022-08-26T14:02:11.625Z,78.66
2022-08-26T14:04:41.104Z,78.74
2022-08-26T14:07:10.524Z,78.13
2022-08-26T14:09:39.876Z,78.55
2022-08-26T14:12:09.322Z,78.94
2022-08-26T14:14:38.773Z,79.83
2022-08-26T14:17:09.355Z,79.70
2022-08-26T14:19:38.698Z,79.75
2022-08-26T14:22:08.193Z,79.59
2022-08-26T14:24:37.651Z,78.90
2022-08-26T14:27:07.037Z,78.77
2022-08-26T14:29:36.597Z,78.58
2022-08-26T14:32:11.718Z,78.12
2022-08-26T14:34:43.177Z,78.63
2022-08-26T14:37:15.176Z,78.79
2022-08-26T14:39:44.791Z,79.12
2022-08-26T14:42:16.728Z,78.64
2022-08-26T14:44:48.120Z,78.34
2022-08-26T14:47:18.136Z,78.98
2022-08-26T14:49:47.429Z,79.07
2022-08-26T14:52:16.781Z,78.91
2022-08-26T14:54:43.541Z,79.70
2022-08-26T14:57:15.569Z,79.69
2022-08-26T14:59:50.326Z,79.53
2022-08-26T15:02:30.855Z,79.82
2022-08-26T15:05:04.137Z,80.01
2022-08-26T15:07:33.489Z,79.96
2022-08-26T15:10:03.391Z,79.32
2022-08-26T15:12:32.751Z,79.39
2022-08-26T15:15:02.080Z,79.70
2022-08-26T15:17:31.383Z,79.90
2022-08-26T15:20:01.257Z,79.44
2022-08-26T15:22:30.667Z,79.90
2022-08-26T15:25:03.503Z,79.25
2022-08-26T15:27:32.891Z,80.18
2022-08-26T15:30:05.313Z,79.80
2022-08-26T15:32:34.619Z,80.26
2022-08-26T15:35:08.720Z,80.55
2022-08-26T15:37:39.025Z,80.68
2022-08-26T15:40:09.737Z,79.72
2022-08-26T15:42:40.320Z,80.16
2022-08-26T15:45:10.140Z,80.02
2022-08-26T15:48:00.851Z,79.48
2022-08-26T15:50:29.312Z,80.17
2022-08-26T15:52:59.814Z,80.30
2022-08-26T15:55:29.358Z,79.90
2022-08-26T15:57:59.120Z,80.05
2022-08-26T16:00:31.401Z,80.65
2022-08-26T16:03:04.017Z,79.83
2022-08-26T16:05:33.495Z,79.56
2022-08-26T16:08:03.647Z,79.20
2022-08-26T16:10:33.809Z,79.23
2022-08-26T16:13:03.288Z,79.71
2022-08-26T16:15:35.086Z,80.38
2022-08-26T16:18:04.985Z,80.21
2022-08-26T16:20:36.974Z,80.11
2022-08-26T16:23:07.485Z,80.29
2022-08-26T16:25:37.063Z,80.53
2022-08-26T16:28:06.486Z,80.40
2022-08-26T16:30:44.926Z,80.12
2022-08-26T16:33:14.879Z,79.50
2022-08-26T16:35:58.990Z,80.06
2022-08-26T16:38:28.354Z,79.46
2022-08-26T16:40:59.952Z,79.54
2022-08-26T16:43:29.662Z,79.48
2022-08-26T16:45:59.253Z,79.28
2022-08-26T16:48:28.913Z,78.63
2022-08-26T16:50:58.265Z,78.12
2022-08-26T16:53:27.950Z,78.10
2022-08-26T16:55:57.500Z,78.11
2022-08-26T16:58:26.857Z,78.05
2022-08-26T17:00:56.137Z,78.65
2022-08-26T17:03:25.570Z,78.15
2022-08-26T17:05:54.873Z,78.71
2022-08-26T17:08:27.398Z,79.10
2022-08-26T17:10:58.006Z,79.13
2022-08-26T17:13:35.793Z,79.40
2022-08-26T17:16:07.731Z,79.11
2022-08-26T17:18:38.164Z,79.68
2022-08-26T17:21:11.391Z,79.17
2022-08-26T17:23:41.617Z,79.50
2022-08-26T17:26:11.992Z,79.42
2022-08-26T17:28:41.546Z,79.67
2022-08-26T17:31:12.950Z,79.32
2022-08-26T17:33:43.551Z,79.08
2022-08-26T17:36:14.479Z,78.63
2022-08-26T17:38:43.802Z,78.67
2022-08-26T17:41:16.567Z,78.39
2022-08-26T17:43:46.586Z,78.43
2022-08-26T17:46:16.177Z,78.79
2022-08-26T17:48:47.298Z,78.56
2022-08-26T17:51:19.419Z,79.11
2022-08-26T17:53:50.487Z,79.47
2022-08-26T17:56:24.012Z,79.69
2022-08-26T17:58:54.235Z,79.83
2022-08-26T18:01:28.502Z,79.55
2022-08-26T18:04:00.519Z,80.10
2022-08-26T18:06:31.494Z,80.13
2022-08-26T18:09:01.460Z,81.09
2022-08-26T18:11:32.015Z,80.96
2022-08-26T18:14:01.651Z,80.74
2022-08-26T18:16:34.279Z,81.20
2022-08-26T18:19:05.383Z,80.91
2022-08-26T18:21:36.283Z,81.10
2022-08-26T18:24:06.039Z,81.45
2022-08-26T18:26:38.005Z,81.37
2022-08-26T18:29:08.548Z,81.71
2022-08-26T18:34:07.881Z,81.84
2022-08-26T18:36:40.193Z,82.13
2022-08-26T18:39:10.868Z,82.13
2022-08-26T18:41:54.306Z,81.85
2022-08-26T18:44:24.571Z,82.34
2022-08-26T18:46:54.611Z,82.57
2022-08-26T18:49:24.622Z,82.18
2022-08-26T18:51:56.559Z,82.25
2022-08-26T18:54:25.868Z,82.11
2022-08-26T18:56:56.091Z,82.45
2022-08-26T18:59:26.849Z,82.99
2022-08-26T19:02:00.313Z,82.59
2022-08-26T19:04:29.945Z,82.52
2022-08-26T19:06:59.616Z,82.66
2022-08-26T19:09:31.202Z,82.37
2022-08-26T19:12:02.103Z,82.16
2022-08-26T19:14:31.779Z,82.30
2022-08-26T19:17:01.620Z,82.30
2022-08-26T19:19:34.296Z,82.11
2022-08-26T19:22:04.571Z,82.25
2022-08-26T19:24:37.236Z,81.68
2022-08-26T19:27:06.693Z,82.31
2022-08-26T19:29:38.209Z,82.47
2022-08-26T19:32:08.602Z,82.47
2022-08-26T19:34:38.015Z,82.59
2022-08-26T19:37:07.775Z,83.06
2022-08-26T19:39:37.534Z,83.04
2022-08-26T19:42:06.979Z,83.00
2022-08-26T19:45:03.375Z,83.20
2022-08-26T19:47:32.878Z,83.32
2022-08-26T19:50:02.253Z,83.69
2022-08-26T19:52:35.093Z,83.49
2022-08-26T19:55:05.063Z,83.92
2022-08-26T19:57:34.429Z,84.39
2022-08-26T20:00:03.957Z,84.26
2022-08-26T20:02:34.186Z,84.09
2022-08-26T20:05:03.698Z,84.43
2022-08-26T20:07:33.186Z,84.62
2022-08-26T20:10:03.345Z,84.64
2022-08-26T20:12:33.795Z,84.48
2022-08-26T20:15:04.538Z,84.99
2022-08-26T20:17:36.838Z,84.72
2022-08-26T20:20:32.639Z,84.79
2022-08-26T20:23:05.254Z,84.97
2022-08-26T20:25:36.025Z,85.33
2022-08-26T20:28:05.437Z,85.08
2022-08-26T20:30:34.755Z,85.27
2022-08-26T20:33:04.022Z,84.93
2022-08-26T20:35:33.444Z,84.54
2022-08-26T20:38:02.853Z,84.74
2022-08-26T20:40:33.498Z,84.39
2022-08-26T20:43:03.848Z,84.13
2022-08-26T20:45:33.308Z,84.20
2022-08-26T20:48:02.725Z,84.30
2022-08-26T20:50:33.203Z,84.37
2022-08-26T20:53:03.085Z,84.37
2022-08-26T20:55:32.512Z,84.42
2022-08-26T20:58:01.883Z,84.48
2022-08-26T21:00:31.228Z,84.49
2022-08-26T21:03:00.526Z,84.47
2022-08-26T21:05:29.872Z,84.87
2022-08-26T21:07:59.143Z,84.24
2022-08-26T21:10:30.328Z,84.14
2022-08-26T21:13:00.502Z,83.96
2022-08-26T21:15:29.940Z,84.62
2022-08-26T21:18:01.179Z,84.16
2022-08-26T21:20:30.705Z,84.09
2022-08-26T21:23:00.115Z,84.42
2022-08-26T21:25:29.423Z,84.26
2022-08-26T21:27:59.040Z,83.85
2022-08-26T21:30:28.562Z,84.70
2022-08-26T21:32:57.924Z,84.43
2022-08-26T21:35:27.242Z,84.39
2022-08-26T21:37:56.536Z,84.27
2022-08-26T21:40:26.094Z,84.00
2022-08-26T21:42:55.360Z,84.33
2022-08-26T21:45:25.220Z,84.52
2022-08-26T21:47:54.564Z,84.57
2022-08-26T21:50:23.893Z,84.64
2022-08-26T21:52:53.210Z,84.78
2022-08-26T21:55:23.067Z,85.05
2022-08-26T21:57:52.439Z,84.66
2022-08-26T22:00:21.764Z,83.91
2022-08-26T22:02:51.068Z,83.98
2022-08-26T22:05:20.520Z,83.79
2022-08-26T22:07:49.881Z,84.23
2022-08-26T22:10:19.161Z,84.20
2022-08-26T22:12:48.507Z,83.98
2022-08-26T22:15:19.844Z,84.05
2022-08-26T22:17:49.202Z,85.64
2022-08-26T22:20:18.551Z,86.20
2022-08-26T22:22:47.946Z,86.59
2022-08-26T22:25:17.344Z,88.58
2022-08-26T22:27:49.884Z,88.47
2022-08-26T22:30:19.980Z,90.76
2022-08-26T22:32:50.126Z,91.06
2022-08-26T22:35:28.991Z,91.23
2022-08-26T22:37:59.997Z,90.96
2022-08-26T22:40:29.428Z,94.96
2022-08-26T22:42:58.772Z,95.11
2022-08-26T22:45:31.456Z,96.67
2022-08-26T22:48:05.089Z,95.54
2022-08-26T22:50:34.753Z,98.91
2022-08-26T22:53:04.245Z,99.12
2022-08-26T22:55:33.515Z,100.00
2022-08-26T22:58:03.730Z,99.79
2022-08-26T23:00:33.300Z,100.00
2022-08-26T23:03:04.430Z,100.00
2022-08-26T23:05:34.778Z,99.48
2022-08-26T23:08:36.253Z,100.00
2022-08-26T23:11:05.692Z,100.00
2022-08-26T23:13:38.195Z,100.00
2022-08-26T23:16:39.604Z,100.00
2022-08-26T23:19:41.683Z,100.00
2022-08-26T23:55:31.050Z,100.00
2022-08-26T23:58:47.084Z,100.00
